createdAt,value
2018-06-08T00:01:19.384Z,11.75
2018-06-08T00:03:53.482Z,11.78
2018-06-08T00:06:27.629Z,11.49
2018-06-08T00:09:16.739Z,11.43
2018-06-08T00:11:50.689Z,11.37
2018-06-08T00:14:24.632Z,11.69
2018-06-08T00:16:58.508Z,11.73
2018-06-08T00:19:32.588Z,11.92
2018-06-08T00:22:06.588Z,12.11
2018-06-08T00:24:40.575Z,12.22
2018-06-08T00:27:14.536Z,12.35
2018-06-08T00:29:48.368Z,12.46
2018-06-08T00:32:22.324Z,12.34
2018-06-08T00:34:56.324Z,11.89
2018-06-08T00:37:30.211Z,11.88
2018-06-08T00:40:04.128Z,11.99
2018-06-08T00:42:38.165Z,12.07
2018-06-08T00:45:12.022Z,12.11
2018-06-08T00:47:45.779Z,12.18
2018-06-08T00:50:19.951Z,12.22
2018-06-08T00:52:53.833Z,12.20
2018-06-08T00:55:27.673Z,12.31
2018-06-08T00:58:04.997Z,12.19
2018-06-08T01:00:39.111Z,12.23
2018-06-08T01:03:12.992Z,12.30
2018-06-08T01:05:46.846Z,12.26
2018-06-08T01:08:20.905Z,12.16
2018-06-08T01:10:54.764Z,12.23
2018-06-08T01:13:28.744Z,12.17
2018-06-08T01:16:02.761Z,12.15
2018-06-08T01:18:36.636Z,12.11
2018-06-08T01:21:10.826Z,12.07
2018-06-08T01:23:44.663Z,11.96
2018-06-08T01:26:18.873Z,11.95
2018-06-08T01:28:52.800Z,11.97
2018-06-08T01:31:26.669Z,12.01
2018-06-08T01:34:00.575Z,11.96
2018-06-08T01:36:34.511Z,12.03
2018-06-08T01:39:09.056Z,11.93
2018-06-08T01:41:43.234Z,11.75
2018-06-08T01:44:17.088Z,11.48
2018-06-08T01:46:50.933Z,11.32
2018-06-08T01:49:25.008Z,11.46
2018-06-08T01:51:59.017Z,11.18
2018-06-08T01:54:32.935Z,11.13
2018-06-08T01:57:06.863Z,11.00
2018-06-08T01:59:41.358Z,10.77
2018-06-08T02:02:15.348Z,10.46
2018-06-08T02:04:49.252Z,10.31
2018-06-08T02:07:23.311Z,10.44
2018-06-08T02:09:57.253Z,10.61
2018-06-08T02:12:31.215Z,10.39
2018-06-08T02:15:05.228Z,10.23
2018-06-08T02:17:39.234Z,10.13
2018-06-08T02:20:13.312Z,10.23
2018-06-08T02:22:47.299Z,10.28
2018-06-08T02:25:21.212Z,10.41
2018-06-08T02:27:55.095Z,10.47
2018-06-08T02:30:29.051Z,10.62
2018-06-08T02:33:03.160Z,10.51
2018-06-08T02:35:37.670Z,10.49
2018-06-08T02:38:11.575Z,10.56
2018-06-08T02:40:45.456Z,10.48
2018-06-08T02:43:19.359Z,10.24
2018-06-08T02:45:53.349Z,10.14
2018-06-08T02:48:27.326Z,10.10
2018-06-08T02:51:01.259Z,10.13
2018-06-08T02:53:35.399Z,10.19
2018-06-08T02:56:09.342Z,10.27
2018-06-08T02:58:43.256Z,10.39
2018-06-08T03:01:17.268Z,10.48
2018-06-08T03:03:51.004Z,10.56
2018-06-08T03:06:24.779Z,10.68
2018-06-08T03:08:58.779Z,10.71
2018-06-08T03:11:32.621Z,10.63
2018-06-08T03:14:06.400Z,10.50
2018-06-08T03:16:40.394Z,10.48
2018-06-08T03:19:14.158Z,10.56
2018-06-08T03:21:48.155Z,10.63
2018-06-08T03:24:22.375Z,10.79
2018-06-08T03:26:56.194Z,10.82
2018-06-08T03:29:30.091Z,10.99
2018-06-08T03:32:04.431Z,10.96
2018-06-08T03:34:39.079Z,11.04
2018-06-08T03:37:13.039Z,11.28
2018-06-08T03:39:46.962Z,11.27
2018-06-08T03:42:20.963Z,11.29
2018-06-08T03:44:54.985Z,11.31
2018-06-08T03:47:28.951Z,11.46
2018-06-08T03:50:02.753Z,11.41
2018-06-08T03:52:36.619Z,11.45
2018-06-08T03:55:10.567Z,11.31
2018-06-08T03:57:44.429Z,11.30
2018-06-08T04:00:18.232Z,11.30
2018-06-08T04:02:52.230Z,11.49
2018-06-08T04:05:26.007Z,11.64
2018-06-08T04:08:00.046Z,11.88
2018-06-08T04:10:34.111Z,11.77
2018-06-08T04:13:08.287Z,11.57
2018-06-08T04:15:42.074Z,11.62
2018-06-08T04:18:16.032Z,11.63
2018-06-08T04:20:49.788Z,11.59
2018-06-08T04:23:23.754Z,11.88
2018-06-08T04:25:57.711Z,12.07
2018-06-08T04:29:56.120Z,12.31
2018-06-08T04:32:29.998Z,12.21
2018-06-08T04:35:03.903Z,12.19
2018-06-08T04:37:37.721Z,12.29
2018-06-08T04:40:11.667Z,12.31
2018-06-08T04:42:45.502Z,12.42
2018-06-08T04:45:19.480Z,12.79
2018-06-08T04:47:53.659Z,13.07
2018-06-08T04:50:27.465Z,13.34
2018-06-08T04:53:01.279Z,13.40
2018-06-08T04:55:35.196Z,13.10
2018-06-08T04:58:09.199Z,13.00
2018-06-08T05:00:43.139Z,13.26
2018-06-08T05:03:17.136Z,13.55
2018-06-08T05:05:51.193Z,13.78
2018-06-08T05:08:25.156Z,13.54
2018-06-08T05:10:59.143Z,13.46
2018-06-08T05:13:33.058Z,13.70
2018-06-08T05:16:07.131Z,14.16
2018-06-08T05:18:40.911Z,14.35
2018-06-08T05:21:14.896Z,14.29
2018-06-08T05:23:48.915Z,14.37
2018-06-08T05:26:22.838Z,14.57
2018-06-08T05:28:56.774Z,14.74
2018-06-08T05:31:30.650Z,14.86
2018-06-08T05:34:04.571Z,15.03
2018-06-08T05:36:38.461Z,14.34
2018-06-08T05:39:12.349Z,14.53
2018-06-08T05:41:46.313Z,14.80
2018-06-08T05:44:20.541Z,14.89
2018-06-08T05:46:54.294Z,14.86
2018-06-08T05:49:28.243Z,15.16
2018-06-08T05:52:02.115Z,15.15
2018-06-08T05:54:36.105Z,15.65
2018-06-08T05:57:10.019Z,15.75
2018-06-08T05:59:43.987Z,15.84
2018-06-08T06:02:17.948Z,16.12
2018-06-08T06:04:52.792Z,16.40
2018-06-08T06:07:26.877Z,16.31
2018-06-08T06:10:01.575Z,16.43
2018-06-08T06:12:35.291Z,16.38
2018-06-08T06:15:09.272Z,16.45
2018-06-08T06:17:43.293Z,16.91
2018-06-08T06:20:17.261Z,17.09
2018-06-08T06:22:51.134Z,17.40
2018-06-08T06:25:25.235Z,17.21
2018-06-08T06:27:59.197Z,16.81
2018-06-08T06:30:33.445Z,17.10
2018-06-08T06:33:07.453Z,17.85
2018-06-08T06:35:41.298Z,17.88
2018-06-08T06:38:15.306Z,18.47
2018-06-08T06:40:49.227Z,18.45
2018-06-08T06:43:23.046Z,18.85
2018-06-08T06:45:56.945Z,19.20
2018-06-08T06:48:30.933Z,19.36
2018-06-08T06:51:04.897Z,19.26
2018-06-08T06:53:38.995Z,19.49
2018-06-08T06:56:12.975Z,19.41
2018-06-08T06:58:46.821Z,19.55
2018-06-08T07:01:21.168Z,19.82
2018-06-08T07:03:55.108Z,19.62
2018-06-08T07:06:29.348Z,20.17
2018-06-08T07:09:05.919Z,20.31
2018-06-08T07:11:39.841Z,20.08
2018-06-08T07:14:13.756Z,20.49
2018-06-08T07:16:47.833Z,20.83
2018-06-08T07:19:21.607Z,21.02
2018-06-08T07:21:55.495Z,21.21
2018-06-08T07:24:29.716Z,21.36
2018-06-08T07:27:03.723Z,21.15
2018-06-08T07:29:37.760Z,21.66
2018-06-08T07:32:11.802Z,22.10
2018-06-08T07:34:45.564Z,22.03
2018-06-08T07:37:19.418Z,21.74
2018-06-08T07:39:53.208Z,21.87
2018-06-08T07:42:27.022Z,21.66
2018-06-08T07:45:01.077Z,21.98
2018-06-08T07:47:35.202Z,22.14
2018-06-08T07:50:09.020Z,22.23
2018-06-08T07:54:07.293Z,22.53
2018-06-08T07:56:41.284Z,23.39
2018-06-08T07:59:15.348Z,22.80
2018-06-08T08:01:49.234Z,22.12
2018-06-08T08:04:23.179Z,22.44
2018-06-08T08:06:57.259Z,22.94
2018-06-08T08:09:31.240Z,23.02
2018-06-08T08:12:05.087Z,23.47
2018-06-08T08:14:39.097Z,24.24
2018-06-08T08:17:13.398Z,24.16
2018-06-08T08:19:47.479Z,24.24
2018-06-08T08:22:21.462Z,23.28
2018-06-08T08:24:55.345Z,23.21
2018-06-08T08:27:29.319Z,23.36
2018-06-08T08:30:03.522Z,23.64
2018-06-08T08:32:37.378Z,23.67
2018-06-08T08:35:11.445Z,24.15
2018-06-08T08:37:45.466Z,24.91
2018-06-08T08:40:19.356Z,25.28
2018-06-08T08:42:53.327Z,25.19
2018-06-08T08:45:27.234Z,24.98
2018-06-08T08:48:01.218Z,25.68
2018-06-08T08:50:35.220Z,26.14
2018-06-08T08:53:09.362Z,25.96
2018-06-08T08:55:43.311Z,26.54
2018-06-08T08:58:17.201Z,26.55
2018-06-08T09:00:51.204Z,26.34
2018-06-08T09:03:25.149Z,25.77
2018-06-08T09:05:59.271Z,25.39
2018-06-08T09:08:33.231Z,25.28
2018-06-08T09:11:07.223Z,25.27
2018-06-08T09:13:41.167Z,25.44
2018-06-08T09:16:15.212Z,25.57
2018-06-08T09:18:49.370Z,25.99
2018-06-08T09:21:23.314Z,26.46
2018-06-08T09:23:57.420Z,26.65
2018-06-08T09:26:31.214Z,27.42
2018-06-08T09:29:05.015Z,27.83
2018-06-08T09:31:39.056Z,27.19
2018-06-08T09:34:13.062Z,26.58
2018-06-08T09:36:47.307Z,26.89
2018-06-08T09:39:21.397Z,27.01
2018-06-08T09:41:55.502Z,27.61
2018-06-08T09:44:29.528Z,28.26
2018-06-08T09:47:03.366Z,28.90
2018-06-08T09:49:37.229Z,29.16
2018-06-08T09:52:11.265Z,29.57
2018-06-08T09:54:45.307Z,29.72
2018-06-08T09:57:19.271Z,29.72
2018-06-08T09:59:53.187Z,28.91
2018-06-08T10:02:27.092Z,29.30
2018-06-08T10:05:00.911Z,28.81
2018-06-08T10:07:34.916Z,29.15
2018-06-08T10:10:08.964Z,29.65
2018-06-08T10:12:42.880Z,30.05
2018-06-08T10:15:16.687Z,29.76
2018-06-08T10:17:51.080Z,30.24
2018-06-08T10:20:24.981Z,29.79
2018-06-08T10:22:59.176Z,29.94
2018-06-08T10:25:33.245Z,29.87
2018-06-08T10:28:07.216Z,30.30
2018-06-08T10:30:41.216Z,30.56
2018-06-08T10:33:15.227Z,30.31
2018-06-08T10:35:49.207Z,30.30
2018-06-08T10:38:23.612Z,30.21
2018-06-08T10:40:57.551Z,30.54
2018-06-08T10:43:31.537Z,30.32
2018-06-08T10:46:05.360Z,30.59
2018-06-08T10:48:39.310Z,30.73
2018-06-08T10:51:18.271Z,30.64
2018-06-08T10:53:52.242Z,30.79
2018-06-08T10:56:26.072Z,31.03
2018-06-08T10:59:00.048Z,30.71
2018-06-08T11:01:34.045Z,30.73
2018-06-08T11:04:07.878Z,30.95
2018-06-08T11:06:41.760Z,31.06
2018-06-08T11:09:15.793Z,30.68
2018-06-08T11:11:49.736Z,30.43
2018-06-08T11:14:23.760Z,30.66
2018-06-08T11:16:57.743Z,30.57
2018-06-08T11:19:31.531Z,30.41
2018-06-08T11:22:05.575Z,30.45
2018-06-08T11:24:39.678Z,30.46
2018-06-08T11:27:13.490Z,30.92
2018-06-08T11:29:47.305Z,31.07
2018-06-08T11:32:21.092Z,31.09
2018-06-08T11:34:55.056Z,31.20
2018-06-08T11:37:22.870Z,30.87
2018-06-08T11:39:50.668Z,31.31
2018-06-08T11:42:18.567Z,30.46
2018-06-08T11:44:46.387Z,30.63
2018-06-08T11:47:14.360Z,30.30
2018-06-08T11:49:42.196Z,30.48
2018-06-08T11:52:10.024Z,31.02
2018-06-08T11:54:38.056Z,30.77
2018-06-08T11:57:05.947Z,30.73
2018-06-08T11:59:34.122Z,30.65
2018-06-08T12:02:01.935Z,31.06
2018-06-08T12:04:29.856Z,31.75
2018-06-08T12:06:57.669Z,31.45
2018-06-08T12:09:25.494Z,31.90
2018-06-08T12:11:53.430Z,32.24
2018-06-08T12:14:21.391Z,31.87
2018-06-08T12:16:49.203Z,32.23
2018-06-08T12:19:17.061Z,32.67
2018-06-08T12:21:44.890Z,32.46
2018-06-08T12:24:12.713Z,32.66
2018-06-08T12:26:40.629Z,32.68
2018-06-08T12:29:08.463Z,32.45
2018-06-08T12:31:36.276Z,32.60
2018-06-08T12:34:04.320Z,32.73
2018-06-08T12:36:32.179Z,32.60
2018-06-08T12:38:59.999Z,32.32
2018-06-08T12:41:27.892Z,32.64
2018-06-08T12:43:55.750Z,32.18
2018-06-08T12:46:23.751Z,32.54
2018-06-08T12:48:51.715Z,32.67
2018-06-08T12:51:19.559Z,32.63
2018-06-08T12:53:47.402Z,32.25
2018-06-08T12:56:15.276Z,32.32
2018-06-08T12:58:43.115Z,32.10
2018-06-08T13:01:10.994Z,32.26
2018-06-08T13:03:39.063Z,32.54
2018-06-08T13:06:06.937Z,32.61
2018-06-08T13:08:34.871Z,32.21
2018-06-08T13:11:02.906Z,32.45
2018-06-08T13:13:30.826Z,32.42
2018-06-08T13:15:58.680Z,32.12
2018-06-08T13:18:26.736Z,31.98
2018-06-08T13:20:54.580Z,32.16
2018-06-08T13:23:22.865Z,32.04
2018-06-08T13:25:50.817Z,32.31
2018-06-08T13:28:18.672Z,32.32
2018-06-08T13:30:46.521Z,32.28
2018-06-08T13:33:14.461Z,31.49
2018-06-08T13:35:42.326Z,31.87
2018-06-08T13:38:10.502Z,32.01
2018-06-08T13:40:38.523Z,32.46
2018-06-08T13:43:06.587Z,32.93
2018-06-08T13:45:34.666Z,32.35
2018-06-08T13:48:02.616Z,32.55
2018-06-08T13:50:30.441Z,32.68
2018-06-08T13:52:58.278Z,32.74
2018-06-08T13:55:26.391Z,32.61
2018-06-08T13:57:54.236Z,32.76
2018-06-08T14:00:22.032Z,32.34
2018-06-08T14:02:50.053Z,32.15
2018-06-08T14:05:17.873Z,31.72
2018-06-08T14:07:45.706Z,31.50
2018-06-08T14:10:13.585Z,31.76
2018-06-08T14:12:41.426Z,32.18
2018-06-08T14:15:09.360Z,32.18
2018-06-08T14:17:37.270Z,32.41
2018-06-08T14:20:05.143Z,32.54
2018-06-08T14:22:32.968Z,32.25
2018-06-08T14:25:00.839Z,32.85
2018-06-08T14:27:28.691Z,32.39
2018-06-08T14:29:56.493Z,31.52
2018-06-08T14:32:24.356Z,31.64
2018-06-08T14:34:52.208Z,31.04
2018-06-08T14:37:20.055Z,30.66
2018-06-08T14:39:48.188Z,31.53
2018-06-08T14:42:16.045Z,32.04
2018-06-08T14:44:43.913Z,32.86
2018-06-08T14:47:11.829Z,33.48
2018-06-08T14:49:39.656Z,33.33
2018-06-08T14:52:07.463Z,33.33
2018-06-08T14:54:35.315Z,32.34
2018-06-08T14:57:03.148Z,31.91
2018-06-08T14:59:31.110Z,32.00
2018-06-08T15:01:59.060Z,32.02
2018-06-08T15:04:27.024Z,31.70
2018-06-08T15:06:54.844Z,31.38
2018-06-08T15:09:22.722Z,31.48
2018-06-08T15:11:50.742Z,31.41
2018-06-08T15:14:18.687Z,32.41
2018-06-08T15:16:46.662Z,32.73
2018-06-08T15:19:14.482Z,32.63
2018-06-08T15:21:42.278Z,31.65
2018-06-08T15:24:10.286Z,32.15
2018-06-08T15:26:38.111Z,32.13
2018-06-08T15:29:05.923Z,31.27
2018-06-08T15:31:33.797Z,29.88
2018-06-08T15:34:01.616Z,29.27
2018-06-08T15:36:29.601Z,28.39
2018-06-08T15:38:57.890Z,28.21
2018-06-08T15:41:25.720Z,27.70
2018-06-08T15:43:53.654Z,27.55
2018-06-08T15:46:21.562Z,27.35
2018-06-08T15:48:49.377Z,27.41
2018-06-08T15:51:17.196Z,27.56
2018-06-08T15:53:45.050Z,27.85
2018-06-08T15:56:12.860Z,27.88
2018-06-08T15:58:40.682Z,27.90
2018-06-08T16:01:08.688Z,27.74
2018-06-08T16:03:36.499Z,27.70
2018-06-08T16:06:04.315Z,27.77
2018-06-08T16:08:32.223Z,27.97
2018-06-08T16:11:00.054Z,27.93
2018-06-08T16:13:28.415Z,27.96
2018-06-08T16:15:56.319Z,27.64
2018-06-08T16:18:24.336Z,27.31
2018-06-08T16:20:52.151Z,27.24
2018-06-08T16:23:19.962Z,27.03
2018-06-08T16:25:47.794Z,26.85
2018-06-08T16:28:15.639Z,26.83
2018-06-08T16:30:43.512Z,26.52
2018-06-08T16:33:11.500Z,26.39
2018-06-08T16:35:39.320Z,26.40
2018-06-08T16:38:07.180Z,26.10
2018-06-08T16:40:35.003Z,25.86
2018-06-08T16:43:02.856Z,25.83
2018-06-08T16:45:30.696Z,25.82
2018-06-08T16:47:58.517Z,25.70
2018-06-08T16:50:26.344Z,25.60
2018-06-08T16:52:57.243Z,25.43
2018-06-08T16:55:25.065Z,25.19
2018-06-08T16:57:53.060Z,25.14
2018-06-08T17:00:21.006Z,25.16
2018-06-08T17:02:48.849Z,24.97
2018-06-08T17:05:16.674Z,24.71
2018-06-08T17:07:44.534Z,24.66
2018-06-08T17:10:12.353Z,24.63
2018-06-08T17:12:40.152Z,24.53
2018-06-08T17:15:08.061Z,24.59
2018-06-08T17:17:35.883Z,24.53
2018-06-08T17:20:03.829Z,24.26
2018-06-08T17:22:31.674Z,24.20
2018-06-08T17:24:59.484Z,24.08
2018-06-08T17:27:27.318Z,24.11
2018-06-08T17:29:55.155Z,24.17
2018-06-08T17:32:22.945Z,24.23
2018-06-08T17:34:50.886Z,24.26
2018-06-08T17:37:18.795Z,24.19
2018-06-08T17:39:46.597Z,23.95
2018-06-08T17:42:14.415Z,23.86
2018-06-08T17:44:42.350Z,23.89
2018-06-08T17:47:10.195Z,23.82
2018-06-08T17:49:38.144Z,23.73
2018-06-08T17:52:06.057Z,23.53
2018-06-08T17:54:33.872Z,23.43
2018-06-08T17:57:01.724Z,23.32
2018-06-08T17:59:29.678Z,23.47
2018-06-08T18:01:57.502Z,23.28
2018-06-08T18:04:25.447Z,23.21
2018-06-08T18:06:53.316Z,23.22
2018-06-08T18:09:21.111Z,23.12
2018-06-08T18:11:48.960Z,22.79
2018-06-08T18:14:20.448Z,22.79
2018-06-08T18:16:48.412Z,22.75
2018-06-08T18:19:16.251Z,22.83
2018-06-08T18:21:45.062Z,22.83
2018-06-08T18:24:12.879Z,22.66
2018-06-08T18:26:40.685Z,22.48
2018-06-08T18:29:08.666Z,22.50
2018-06-08T18:31:36.494Z,22.37
2018-06-08T18:34:04.354Z,22.56
2018-06-08T18:36:32.187Z,22.46
2018-06-08T18:39:00.028Z,22.47
2018-06-08T18:41:27.944Z,22.66
2018-06-08T18:43:55.898Z,22.52
2018-06-08T18:46:24.205Z,22.44
2018-06-08T18:48:52.006Z,22.43
2018-06-08T18:51:19.866Z,22.20
2018-06-08T18:53:47.669Z,22.24
2018-06-08T18:56:15.498Z,22.13
2018-06-08T18:58:43.347Z,21.98
2018-06-08T19:01:11.146Z,21.94
2018-06-08T19:03:38.955Z,21.79
2018-06-08T19:06:07.018Z,21.72
2018-06-08T19:08:34.879Z,21.67
2018-06-08T19:11:02.660Z,21.35
2018-06-08T19:13:30.483Z,21.40
2018-06-08T19:15:58.303Z,21.34
2018-06-08T19:18:26.130Z,21.21
2018-06-08T19:20:56.435Z,21.17
2018-06-08T19:23:25.036Z,21.19
2018-06-08T19:25:52.854Z,21.20
2018-06-08T19:28:20.820Z,21.16
2018-06-08T19:30:48.694Z,21.14
2018-06-08T19:33:17.872Z,21.07
2018-06-08T19:35:45.859Z,20.98
2018-06-08T19:38:13.752Z,20.79
2018-06-08T19:40:41.638Z,20.72
2018-06-08T19:43:09.871Z,20.86
2018-06-08T19:45:38.058Z,20.75
2018-06-08T19:48:07.442Z,20.48
2018-06-08T19:50:35.765Z,20.46
2018-06-08T19:53:03.823Z,20.46
2018-06-08T19:55:31.941Z,20.48
2018-06-08T19:57:59.938Z,20.42
2018-06-08T20:00:34.047Z,20.43
2018-06-08T20:03:08.260Z,20.35
2018-06-08T20:05:42.119Z,20.25
2018-06-08T20:08:16.235Z,20.16
2018-06-08T20:10:50.229Z,20.11
2018-06-08T20:13:24.995Z,20.06
2018-06-08T20:15:59.085Z,20.07
2018-06-08T20:18:33.107Z,20.07
2018-06-08T20:21:06.919Z,20.18
2018-06-08T20:23:42.746Z,20.31
2018-06-08T20:26:16.651Z,20.34
2018-06-08T20:28:50.532Z,20.35
2018-06-08T20:31:24.440Z,20.31
2018-06-08T20:33:58.555Z,20.20
2018-06-08T20:36:32.562Z,19.96
2018-06-08T20:39:07.611Z,19.88
2018-06-08T20:41:41.446Z,19.99
2018-06-08T20:44:15.436Z,20.02
2018-06-08T20:46:49.281Z,19.99
2018-06-08T20:49:23.355Z,20.07
2018-06-08T20:51:57.208Z,20.01
2018-06-08T20:54:31.080Z,19.93
2018-06-08T20:57:11.258Z,19.91
2018-06-08T20:59:45.215Z,19.77
2018-06-08T21:02:19.208Z,19.73
2018-06-08T21:04:53.110Z,19.65
2018-06-08T21:07:27.079Z,19.56
2018-06-08T21:10:01.349Z,19.56
2018-06-08T21:12:35.292Z,19.57
2018-06-08T21:15:09.262Z,19.48
2018-06-08T21:17:43.179Z,19.43
2018-06-08T21:20:17.222Z,19.31
2018-06-08T21:22:51.081Z,19.25
2018-06-08T21:25:25.192Z,19.31
2018-06-08T21:27:59.234Z,19.28
2018-06-08T21:30:33.135Z,19.10
2018-06-08T21:33:12.014Z,18.98
2018-06-08T21:35:45.985Z,18.89
2018-06-08T21:38:19.710Z,18.76
2018-06-08T21:40:53.739Z,18.71
2018-06-08T21:43:27.710Z,18.88
2018-06-08T21:46:01.905Z,18.93
2018-06-08T21:48:35.813Z,18.89
2018-06-08T21:51:09.640Z,18.81
2018-06-08T21:53:43.552Z,18.72
2018-06-08T21:56:17.586Z,18.68
2018-06-08T21:58:51.581Z,18.62
2018-06-08T22:01:25.523Z,18.64
2018-06-08T22:03:59.493Z,18.60
2018-06-08T22:06:33.511Z,18.68
2018-06-08T22:09:07.662Z,18.62
2018-06-08T22:11:41.855Z,18.59
2018-06-08T22:14:16.035Z,18.52
2018-06-08T22:16:50.022Z,18.34
2018-06-08T22:19:24.042Z,18.34
2018-06-08T22:21:58.188Z,18.29
2018-06-08T22:24:32.345Z,18.23
2018-06-08T22:27:06.424Z,18.24
2018-06-08T22:29:40.234Z,18.20
2018-06-08T22:32:14.315Z,18.18
2018-06-08T22:34:48.330Z,18.24
2018-06-08T22:37:22.318Z,18.27
2018-06-08T22:39:56.605Z,18.25
2018-06-08T22:42:30.659Z,18.21
2018-06-08T22:45:04.535Z,18.26
2018-06-08T22:47:38.421Z,18.14
2018-06-08T22:50:12.389Z,18.06
2018-06-08T22:52:46.331Z,17.98
2018-06-08T22:55:20.296Z,18.00
2018-06-08T22:57:54.267Z,18.08
2018-06-08T23:00:27.981Z,18.07
2018-06-08T23:03:01.959Z,18.01
2018-06-08T23:05:35.840Z,17.98
2018-06-08T23:08:09.738Z,17.98
2018-06-08T23:10:43.746Z,17.95
2018-06-08T23:13:17.785Z,18.02
2018-06-08T23:15:51.640Z,17.86
2018-06-08T23:18:25.532Z,17.74
2018-06-08T23:20:59.531Z,17.67
2018-06-08T23:23:33.367Z,17.70
2018-06-08T23:26:07.222Z,17.58
2018-06-08T23:28:41.439Z,17.53
2018-06-08T23:31:15.333Z,17.48
2018-06-08T23:33:49.150Z,17.48
2018-06-08T23:36:23.168Z,17.40
2018-06-08T23:38:57.195Z,17.46
2018-06-08T23:41:30.978Z,17.33
2018-06-08T23:44:05.132Z,17.36
2018-06-08T23:46:38.881Z,17.41
2018-06-08T23:49:12.667Z,17.30
2018-06-08T23:51:46.607Z,17.19
2018-06-08T23:54:20.428Z,17.22
2018-06-08T23:56:54.219Z,17.32
2018-06-08T23:59:28.331Z,17.24
